Terminal Aerodrome Forecast
Issued by NWS Atlanta, GA

Home | Current Version | Previous Version | Text Only | Print | Product List | Glossary On
Versions: 1 2 3 4 5 6 7 8 9 10 11 12 13 14 15 16 17 18 19 20 21 22 23 24 25 26 27 28 29 30 31 32 33 34 35 36 37 38 39 40 41 42
000
FTAK31 PAJN 141100
TAFAHN
TAF
PAHN 141140Z 1412/1512 00000KT 4SM BR VCSH SCT005 OVC015
      TEMPO 1412/1416 2SM BR BKN003 OVC015
     FM141800 12006KT 6SM BR VCSH SCT005 BKN020 OVC040
     FM150000 12005KT 6SM BR SCT005 BKN040 BKN080
     FM150600 VRB03KT 4SM BR SCT005 BKN040
      TEMPO 1508/1512 2SM BR BKN003 BKN040
      AMD LTD TO CLD VIS AND WIND=

USA.gov is the U.S. government's official web portal to all federal, state and local government web resources and services.